sensor_id;sensor_type;location;lat;lon;timestamp;P1;durP1;ratioP1;P2;durP2;ratioP2
62588;SDS011;58504;48.770;9.148;2022-08-21T00:00:17;0.50;;;0.50;;
62588;SDS011;58504;48.770;9.148;2022-08-21T00:02:47;0.50;;;0.50;;
62588;SDS011;58504;48.770;9.148;2022-08-21T00:05:16;0.40;;;0.40;;
62588;SDS011;58504;48.770;9.148;2022-08-21T00:07:44;0.50;;;0.50;;
62588;SDS011;58504;48.770;9.148;2022-08-21T00:10:11;0.50;;;0.50;;
62588;SDS011;58504;48.770;9.148;2022-08-21T00:12:39;0.50;;;0.50;;
62588;SDS011;58504;48.770;9.148;2022-08-21T00:15:07;0.60;;;0.60;;
62588;SDS011;58504;48.770;9.148;2022-08-21T00:17:35;0.40;;;0.40;;
62588;SDS011;58504;48.770;9.148;2022-08-21T00:20:03;0.38;;;0.38;;
62588;SDS011;58504;48.770;9.148;2022-08-21T00:22:33;0.63;;;0.50;;
62588;SDS011;58504;48.770;9.148;2022-08-21T00:25:01;0.57;;;0.57;;
62588;SDS011;58504;48.770;9.148;2022-08-21T00:27:29;0.43;;;0.43;;
62588;SDS011;58504;48.770;9.148;2022-08-21T00:29:56;0.35;;;0.35;;
62588;SDS011;58504;48.770;9.148;2022-08-21T00:32:24;0.43;;;0.43;;
62588;SDS011;58504;48.770;9.148;2022-08-21T00:34:51;0.40;;;0.40;;
62588;SDS011;58504;48.770;9.148;2022-08-21T00:37:18;0.40;;;0.40;;
62588;SDS011;58504;48.770;9.148;2022-08-21T00:39:46;0.50;;;0.50;;
62588;SDS011;58504;48.770;9.148;2022-08-21T00:42:14;0.40;;;0.40;;
62588;SDS011;58504;48.770;9.148;2022-08-21T00:44:42;0.38;;;0.38;;
62588;SDS011;58504;48.770;9.148;2022-08-21T00:47:09;0.38;;;0.38;;
62588;SDS011;58504;48.770;9.148;2022-08-21T00:49:37;0.40;;;0.40;;
62588;SDS011;58504;48.770;9.148;2022-08-21T00:52:05;0.38;;;0.38;;
62588;SDS011;58504;48.770;9.148;2022-08-21T00:54:34;0.50;;;0.50;;
62588;SDS011;58504;48.770;9.148;2022-08-21T00:57:05;1.75;;;0.45;;
62588;SDS011;58504;48.770;9.148;2022-08-21T00:59:38;0.60;;;0.60;;
62588;SDS011;58504;48.770;9.148;2022-08-21T01:02:08;0.30;;;0.30;;
62588;SDS011;58504;48.770;9.148;2022-08-21T01:04:35;0.50;;;0.50;;
62588;SDS011;58504;48.770;9.148;2022-08-21T01:07:04;0.50;;;0.50;;
62588;SDS011;58504;48.770;9.148;2022-08-21T01:09:32;0.50;;;0.50;;
62588;SDS011;58504;48.770;9.148;2022-08-21T01:11:59;0.40;;;0.40;;
62588;SDS011;58504;48.770;9.148;2022-08-21T01:14:27;0.70;;;0.70;;
62588;SDS011;58504;48.770;9.148;2022-08-21T01:16:56;0.50;;;0.50;;
62588;SDS011;58504;48.770;9.148;2022-08-21T01:19:25;0.47;;;0.47;;
62588;SDS011;58504;48.770;9.148;2022-08-21T01:21:54;0.35;;;0.35;;
62588;SDS011;58504;48.770;9.148;2022-08-21T01:24:22;0.55;;;0.55;;
62588;SDS011;58504;48.770;9.148;2022-08-21T01:26:49;0.40;;;0.40;;
62588;SDS011;58504;48.770;9.148;2022-08-21T01:29:20;0.50;;;0.50;;
62588;SDS011;58504;48.770;9.148;2022-08-21T01:31:53;0.40;;;0.40;;
62588;SDS011;58504;48.770;9.148;2022-08-21T01:34:20;0.65;;;0.65;;
62588;SDS011;58504;48.770;9.148;2022-08-21T01:36:47;0.40;;;0.40;;
62588;SDS011;58504;48.770;9.148;2022-08-21T01:39:15;0.50;;;0.50;;
62588;SDS011;58504;48.770;9.148;2022-08-21T01:41:43;0.50;;;0.50;;
62588;SDS011;58504;48.770;9.148;2022-08-21T01:44:09;0.43;;;0.43;;
62588;SDS011;58504;48.770;9.148;2022-08-21T01:46:36;0.50;;;0.50;;
62588;SDS011;58504;48.770;9.148;2022-08-21T01:49:03;0.35;;;0.35;;
62588;SDS011;58504;48.770;9.148;2022-08-21T01:51:31;0.30;;;0.30;;
62588;SDS011;58504;48.770;9.148;2022-08-21T01:53:58;0.40;;;0.40;;
62588;SDS011;58504;48.770;9.148;2022-08-21T01:56:26;0.40;;;0.40;;
62588;SDS011;58504;48.770;9.148;2022-08-21T01:58:53;0.40;;;0.40;;
62588;SDS011;58504;48.770;9.148;2022-08-21T02:01:20;0.40;;;0.40;;
62588;SDS011;58504;48.770;9.148;2022-08-21T02:03:47;0.40;;;0.40;;
62588;SDS011;58504;48.770;9.148;2022-08-21T02:06:14;0.47;;;0.47;;
62588;SDS011;58504;48.770;9.148;2022-08-21T02:08:42;0.40;;;0.40;;
62588;SDS011;58504;48.770;9.148;2022-08-21T02:11:10;0.55;;;0.55;;
62588;SDS011;58504;48.770;9.148;2022-08-21T02:13:38;0.60;;;0.60;;
62588;SDS011;58504;48.770;9.148;2022-08-21T02:16:05;0.43;;;0.40;;
62588;SDS011;58504;48.770;9.148;2022-08-21T02:18:33;0.70;;;0.50;;
62588;SDS011;58504;48.770;9.148;2022-08-21T02:21:00;0.40;;;0.40;;
62588;SDS011;58504;48.770;9.148;2022-08-21T02:23:28;0.40;;;0.40;;
62588;SDS011;58504;48.770;9.148;2022-08-21T02:25:56;0.60;;;0.60;;
62588;SDS011;58504;48.770;9.148;2022-08-21T02:28:23;0.68;;;0.68;;
62588;SDS011;58504;48.770;9.148;2022-08-21T02:30:52;0.45;;;0.45;;
62588;SDS011;58504;48.770;9.148;2022-08-21T02:33:19;0.30;;;0.30;;
62588;SDS011;58504;48.770;9.148;2022-08-21T02:35:48;0.40;;;0.40;;
62588;SDS011;58504;48.770;9.148;2022-08-21T02:38:16;0.43;;;0.43;;
62588;SDS011;58504;48.770;9.148;2022-08-21T02:40:45;0.38;;;0.38;;
62588;SDS011;58504;48.770;9.148;2022-08-21T02:43:13;0.60;;;0.60;;
62588;SDS011;58504;48.770;9.148;2022-08-21T02:45:41;0.40;;;0.40;;
62588;SDS011;58504;48.770;9.148;2022-08-21T02:48:12;0.30;;;0.30;;
62588;SDS011;58504;48.770;9.148;2022-08-21T02:50:43;0.60;;;0.60;;
62588;SDS011;58504;48.770;9.148;2022-08-21T02:53:12;0.30;;;0.30;;
62588;SDS011;58504;48.770;9.148;2022-08-21T02:55:41;0.50;;;0.50;;
62588;SDS011;58504;48.770;9.148;2022-08-21T02:58:09;0.60;;;0.60;;
62588;SDS011;58504;48.770;9.148;2022-08-21T03:00:38;0.50;;;0.50;;
62588;SDS011;58504;48.770;9.148;2022-08-21T03:03:04;0.30;;;0.30;;
62588;SDS011;58504;48.770;9.148;2022-08-21T03:05:33;0.30;;;0.30;;
62588;SDS011;58504;48.770;9.148;2022-08-21T03:08:03;0.77;;;0.77;;
62588;SDS011;58504;48.770;9.148;2022-08-21T03:10:31;0.50;;;0.50;;
62588;SDS011;58504;48.770;9.148;2022-08-21T03:12:58;0.40;;;0.40;;
62588;SDS011;58504;48.770;9.148;2022-08-21T03:15:27;0.35;;;0.35;;
62588;SDS011;58504;48.770;9.148;2022-08-21T03:17:54;0.38;;;0.38;;
62588;SDS011;58504;48.770;9.148;2022-08-21T03:20:22;0.52;;;0.52;;
62588;SDS011;58504;48.770;9.148;2022-08-21T03:22:53;0.52;;;0.52;;
62588;SDS011;58504;48.770;9.148;2022-08-21T03:25:20;0.30;;;0.30;;
62588;SDS011;58504;48.770;9.148;2022-08-21T03:27:48;0.40;;;0.40;;
62588;SDS011;58504;48.770;9.148;2022-08-21T03:30:15;0.40;;;0.40;;
62588;SDS011;58504;48.770;9.148;2022-08-21T03:32:43;0.35;;;0.35;;
62588;SDS011;58504;48.770;9.148;2022-08-21T03:35:11;0.50;;;0.50;;
62588;SDS011;58504;48.770;9.148;2022-08-21T03:37:38;0.40;;;0.40;;
62588;SDS011;58504;48.770;9.148;2022-08-21T03:40:07;0.40;;;0.40;;
62588;SDS011;58504;48.770;9.148;2022-08-21T03:42:36;0.45;;;0.45;;
62588;SDS011;58504;48.770;9.148;2022-08-21T03:45:03;0.43;;;0.43;;
62588;SDS011;58504;48.770;9.148;2022-08-21T03:47:30;0.45;;;0.40;;
62588;SDS011;58504;48.770;9.148;2022-08-21T03:49:57;0.30;;;0.30;;
62588;SDS011;58504;48.770;9.148;2022-08-21T03:52:24;0.40;;;0.40;;
62588;SDS011;58504;48.770;9.148;2022-08-21T03:54:51;0.43;;;0.43;;
62588;SDS011;58504;48.770;9.148;2022-08-21T03:57:19;0.40;;;0.40;;
62588;SDS011;58504;48.770;9.148;2022-08-21T03:59:46;0.43;;;0.43;;
62588;SDS011;58504;48.770;9.148;2022-08-21T04:02:13;0.45;;;0.45;;
62588;SDS011;58504;48.770;9.148;2022-08-21T04:04:44;0.32;;;0.32;;
62588;SDS011;58504;48.770;9.148;2022-08-21T04:07:11;0.43;;;0.43;;
62588;SDS011;58504;48.770;9.148;2022-08-21T04:09:38;0.55;;;0.55;;
62588;SDS011;58504;48.770;9.148;2022-08-21T04:12:05;0.60;;;0.60;;
62588;SDS011;58504;48.770;9.148;2022-08-21T04:14:33;0.52;;;0.52;;
62588;SDS011;58504;48.770;9.148;2022-08-21T04:17:00;0.57;;;0.40;;
62588;SDS011;58504;48.770;9.148;2022-08-21T04:19:27;0.40;;;0.40;;
62588;SDS011;58504;48.770;9.148;2022-08-21T04:21:53;0.50;;;0.50;;
62588;SDS011;58504;48.770;9.148;2022-08-21T04:24:20;0.50;;;0.50;;
62588;SDS011;58504;48.770;9.148;2022-08-21T04:26:47;0.47;;;0.35;;
62588;SDS011;58504;48.770;9.148;2022-08-21T04:29:15;0.40;;;0.40;;
62588;SDS011;58504;48.770;9.148;2022-08-21T04:31:43;0.70;;;0.70;;
62588;SDS011;58504;48.770;9.148;2022-08-21T04:34:09;0.50;;;0.50;;
62588;SDS011;58504;48.770;9.148;2022-08-21T04:36:36;0.40;;;0.40;;
62588;SDS011;58504;48.770;9.148;2022-08-21T04:39:04;0.40;;;0.40;;
62588;SDS011;58504;48.770;9.148;2022-08-21T04:41:31;0.50;;;0.50;;
62588;SDS011;58504;48.770;9.148;2022-08-21T04:43:58;0.55;;;0.55;;
62588;SDS011;58504;48.770;9.148;2022-08-21T04:46:25;0.35;;;0.35;;
62588;SDS011;58504;48.770;9.148;2022-08-21T04:48:53;0.60;;;0.60;;
62588;SDS011;58504;48.770;9.148;2022-08-21T04:51:21;0.52;;;0.52;;
62588;SDS011;58504;48.770;9.148;2022-08-21T04:53:52;0.45;;;0.45;;
62588;SDS011;58504;48.770;9.148;2022-08-21T04:56:25;0.40;;;0.40;;
62588;SDS011;58504;48.770;9.148;2022-08-21T04:58:57;0.43;;;0.43;;
62588;SDS011;58504;48.770;9.148;2022-08-21T05:01:28;0.63;;;0.63;;
62588;SDS011;58504;48.770;9.148;2022-08-21T05:03:58;0.57;;;0.57;;
62588;SDS011;58504;48.770;9.148;2022-08-21T05:06:27;0.50;;;0.50;;
62588;SDS011;58504;48.770;9.148;2022-08-21T05:08:56;0.30;;;0.30;;
62588;SDS011;58504;48.770;9.148;2022-08-21T05:11:23;0.65;;;0.65;;
62588;SDS011;58504;48.770;9.148;2022-08-21T05:13:50;0.35;;;0.35;;
62588;SDS011;58504;48.770;9.148;2022-08-21T05:16:17;0.80;;;0.30;;
62588;SDS011;58504;48.770;9.148;2022-08-21T05:18:44;0.60;;;0.60;;
62588;SDS011;58504;48.770;9.148;2022-08-21T05:21:12;0.50;;;0.50;;
62588;SDS011;58504;48.770;9.148;2022-08-21T05:23:39;0.57;;;0.57;;
62588;SDS011;58504;48.770;9.148;2022-08-21T05:26:05;0.65;;;0.65;;
62588;SDS011;58504;48.770;9.148;2022-08-21T05:28:32;0.40;;;0.40;;
62588;SDS011;58504;48.770;9.148;2022-08-21T05:30:59;0.40;;;0.40;;
62588;SDS011;58504;48.770;9.148;2022-08-21T05:33:26;0.45;;;0.45;;
62588;SDS011;58504;48.770;9.148;2022-08-21T05:35:53;0.30;;;0.30;;
62588;SDS011;58504;48.770;9.148;2022-08-21T05:38:22;0.50;;;0.50;;
62588;SDS011;58504;48.770;9.148;2022-08-21T05:40:50;0.30;;;0.30;;
62588;SDS011;58504;48.770;9.148;2022-08-21T05:43:16;0.57;;;0.57;;
62588;SDS011;58504;48.770;9.148;2022-08-21T05:45:43;0.50;;;0.50;;
62588;SDS011;58504;48.770;9.148;2022-08-21T05:48:11;0.40;;;0.40;;
62588;SDS011;58504;48.770;9.148;2022-08-21T05:50:39;0.25;;;0.25;;
62588;SDS011;58504;48.770;9.148;2022-08-21T05:53:06;0.40;;;0.40;;
62588;SDS011;58504;48.770;9.148;2022-08-21T05:55:36;0.50;;;0.50;;
62588;SDS011;58504;48.770;9.148;2022-08-21T05:58:04;0.63;;;0.60;;
62588;SDS011;58504;48.770;9.148;2022-08-21T06:00:31;0.50;;;0.50;;
62588;SDS011;58504;48.770;9.148;2022-08-21T06:02:58;0.50;;;0.50;;
62588;SDS011;58504;48.770;9.148;2022-08-21T06:05:25;0.50;;;0.50;;
62588;SDS011;58504;48.770;9.148;2022-08-21T06:07:52;0.30;;;0.30;;
62588;SDS011;58504;48.770;9.148;2022-08-21T06:10:19;0.35;;;0.35;;
62588;SDS011;58504;48.770;9.148;2022-08-21T06:12:48;0.30;;;0.30;;
62588;SDS011;58504;48.770;9.148;2022-08-21T06:15:19;0.57;;;0.57;;
62588;SDS011;58504;48.770;9.148;2022-08-21T06:17:46;0.65;;;0.65;;
62588;SDS011;58504;48.770;9.148;2022-08-21T06:20:12;0.43;;;0.43;;
62588;SDS011;58504;48.770;9.148;2022-08-21T06:22:39;0.60;;;0.60;;
62588;SDS011;58504;48.770;9.148;2022-08-21T06:25:06;0.50;;;0.50;;
62588;SDS011;58504;48.770;9.148;2022-08-21T06:27:34;0.32;;;0.32;;
62588;SDS011;58504;48.770;9.148;2022-08-21T06:30:02;1.00;;;0.80;;
62588;SDS011;58504;48.770;9.148;2022-08-21T06:32:29;0.50;;;0.50;;
62588;SDS011;58504;48.770;9.148;2022-08-21T06:34:56;0.52;;;0.52;;
62588;SDS011;58504;48.770;9.148;2022-08-21T06:37:23;1.00;;;0.60;;
62588;SDS011;58504;48.770;9.148;2022-08-21T06:39:50;0.28;;;0.28;;
62588;SDS011;58504;48.770;9.148;2022-08-21T06:42:17;0.65;;;0.60;;
62588;SDS011;58504;48.770;9.148;2022-08-21T06:44:44;0.40;;;0.40;;
62588;SDS011;58504;48.770;9.148;2022-08-21T06:47:12;0.60;;;0.60;;
62588;SDS011;58504;48.770;9.148;2022-08-21T06:49:39;0.35;;;0.35;;
62588;SDS011;58504;48.770;9.148;2022-08-21T06:52:08;0.60;;;0.60;;
62588;SDS011;58504;48.770;9.148;2022-08-21T06:54:36;0.65;;;0.65;;
62588;SDS011;58504;48.770;9.148;2022-08-21T06:57:03;0.38;;;0.38;;
62588;SDS011;58504;48.770;9.148;2022-08-21T06:59:30;0.50;;;0.50;;
62588;SDS011;58504;48.770;9.148;2022-08-21T07:01:57;0.40;;;0.40;;
62588;SDS011;58504;48.770;9.148;2022-08-21T07:04:25;0.40;;;0.40;;
62588;SDS011;58504;48.770;9.148;2022-08-21T07:06:52;0.50;;;0.50;;
62588;SDS011;58504;48.770;9.148;2022-08-21T07:09:19;0.40;;;0.40;;
62588;SDS011;58504;48.770;9.148;2022-08-21T07:11:46;0.50;;;0.50;;
62588;SDS011;58504;48.770;9.148;2022-08-21T07:14:18;0.73;;;0.73;;
62588;SDS011;58504;48.770;9.148;2022-08-21T07:16:44;0.52;;;0.52;;
62588;SDS011;58504;48.770;9.148;2022-08-21T07:19:11;0.50;;;0.50;;
62588;SDS011;58504;48.770;9.148;2022-08-21T07:21:39;0.40;;;0.40;;
62588;SDS011;58504;48.770;9.148;2022-08-21T07:24:06;0.40;;;0.40;;
62588;SDS011;58504;48.770;9.148;2022-08-21T07:26:34;0.50;;;0.50;;
62588;SDS011;58504;48.770;9.148;2022-08-21T07:29:01;0.50;;;0.50;;
62588;SDS011;58504;48.770;9.148;2022-08-21T07:31:28;0.60;;;0.60;;
62588;SDS011;58504;48.770;9.148;2022-08-21T07:33:55;0.70;;;0.70;;
62588;SDS011;58504;48.770;9.148;2022-08-21T07:36:22;0.55;;;0.55;;
62588;SDS011;58504;48.770;9.148;2022-08-21T07:38:50;0.35;;;0.35;;
62588;SDS011;58504;48.770;9.148;2022-08-21T07:41:18;0.47;;;0.47;;
62588;SDS011;58504;48.770;9.148;2022-08-21T07:43:46;0.50;;;0.50;;
62588;SDS011;58504;48.770;9.148;2022-08-21T07:46:13;0.68;;;0.68;;
62588;SDS011;58504;48.770;9.148;2022-08-21T07:48:40;0.63;;;0.50;;
62588;SDS011;58504;48.770;9.148;2022-08-21T07:51:08;0.40;;;0.40;;
62588;SDS011;58504;48.770;9.148;2022-08-21T07:53:37;0.40;;;0.40;;
62588;SDS011;58504;48.770;9.148;2022-08-21T07:56:06;0.65;;;0.65;;
62588;SDS011;58504;48.770;9.148;2022-08-21T07:58:36;0.52;;;0.52;;
62588;SDS011;58504;48.770;9.148;2022-08-21T08:01:03;0.57;;;0.57;;
62588;SDS011;58504;48.770;9.148;2022-08-21T08:03:31;0.77;;;0.77;;
62588;SDS011;58504;48.770;9.148;2022-08-21T08:05:58;0.35;;;0.35;;
62588;SDS011;58504;48.770;9.148;2022-08-21T08:08:25;0.50;;;0.50;;
62588;SDS011;58504;48.770;9.148;2022-08-21T08:10:52;0.52;;;0.52;;
62588;SDS011;58504;48.770;9.148;2022-08-21T08:13:21;0.70;;;0.70;;
62588;SDS011;58504;48.770;9.148;2022-08-21T08:15:48;0.60;;;0.60;;
62588;SDS011;58504;48.770;9.148;2022-08-21T08:18:15;0.38;;;0.38;;
62588;SDS011;58504;48.770;9.148;2022-08-21T08:20:42;0.70;;;0.70;;
62588;SDS011;58504;48.770;9.148;2022-08-21T08:23:09;0.40;;;0.40;;
62588;SDS011;58504;48.770;9.148;2022-08-21T08:25:37;0.60;;;0.60;;
62588;SDS011;58504;48.770;9.148;2022-08-21T08:28:04;0.73;;;0.73;;
62588;SDS011;58504;48.770;9.148;2022-08-21T08:30:33;0.40;;;0.40;;
62588;SDS011;58504;48.770;9.148;2022-08-21T08:33:00;0.60;;;0.60;;
62588;SDS011;58504;48.770;9.148;2022-08-21T08:35:27;0.77;;;0.77;;
62588;SDS011;58504;48.770;9.148;2022-08-21T08:37:54;0.70;;;0.70;;
62588;SDS011;58504;48.770;9.148;2022-08-21T08:40:22;0.70;;;0.70;;
62588;SDS011;58504;48.770;9.148;2022-08-21T08:42:58;0.68;;;0.68;;
62588;SDS011;58504;48.770;9.148;2022-08-21T08:45:25;0.55;;;0.55;;
62588;SDS011;58504;48.770;9.148;2022-08-21T08:47:55;0.80;;;0.80;;
62588;SDS011;58504;48.770;9.148;2022-08-21T08:50:27;0.60;;;0.60;;
62588;SDS011;58504;48.770;9.148;2022-08-21T08:53:04;0.70;;;0.70;;
62588;SDS011;58504;48.770;9.148;2022-08-21T08:55:34;0.63;;;0.63;;
62588;SDS011;58504;48.770;9.148;2022-08-21T08:58:05;0.68;;;0.68;;
62588;SDS011;58504;48.770;9.148;2022-08-21T09:00:33;0.60;;;0.60;;
62588;SDS011;58504;48.770;9.148;2022-08-21T09:03:02;0.77;;;0.77;;
62588;SDS011;58504;48.770;9.148;2022-08-21T09:05:30;0.80;;;0.80;;
62588;SDS011;58504;48.770;9.148;2022-08-21T09:08:18;0.65;;;0.65;;
62588;SDS011;58504;48.770;9.148;2022-08-21T09:10:55;0.60;;;0.60;;
62588;SDS011;58504;48.770;9.148;2022-08-21T09:13:28;0.75;;;0.75;;
62588;SDS011;58504;48.770;9.148;2022-08-21T09:16:03;0.75;;;0.75;;
62588;SDS011;58504;48.770;9.148;2022-08-21T09:18:38;0.40;;;0.40;;
62588;SDS011;58504;48.770;9.148;2022-08-21T09:21:16;0.55;;;0.55;;
62588;SDS011;58504;48.770;9.148;2022-08-21T09:23:52;0.60;;;0.60;;
62588;SDS011;58504;48.770;9.148;2022-08-21T09:26:26;0.82;;;0.80;;
62588;SDS011;58504;48.770;9.148;2022-08-21T09:28:58;0.60;;;0.60;;
62588;SDS011;58504;48.770;9.148;2022-08-21T09:31:28;0.73;;;0.60;;
62588;SDS011;58504;48.770;9.148;2022-08-21T09:33:59;0.40;;;0.40;;
62588;SDS011;58504;48.770;9.148;2022-08-21T09:36:30;0.60;;;0.60;;
62588;SDS011;58504;48.770;9.148;2022-08-21T09:39:02;0.80;;;0.60;;
62588;SDS011;58504;48.770;9.148;2022-08-21T09:41:31;1.80;;;1.02;;
62588;SDS011;58504;48.770;9.148;2022-08-21T09:44:00;1.05;;;1.02;;
62588;SDS011;58504;48.770;9.148;2022-08-21T09:46:28;0.70;;;0.70;;
62588;SDS011;58504;48.770;9.148;2022-08-21T09:48:55;0.85;;;0.85;;
62588;SDS011;58504;48.770;9.148;2022-08-21T09:51:27;0.77;;;0.75;;
62588;SDS011;58504;48.770;9.148;2022-08-21T09:53:57;0.85;;;0.82;;
62588;SDS011;58504;48.770;9.148;2022-08-21T09:56:36;0.68;;;0.68;;
62588;SDS011;58504;48.770;9.148;2022-08-21T09:59:25;0.65;;;0.65;;
62588;SDS011;58504;48.770;9.148;2022-08-21T10:01:57;0.50;;;0.50;;
62588;SDS011;58504;48.770;9.148;2022-08-21T10:04:27;0.90;;;0.73;;
62588;SDS011;58504;48.770;9.148;2022-08-21T10:07:07;0.98;;;0.80;;
62588;SDS011;58504;48.770;9.148;2022-08-21T10:09:34;0.80;;;0.80;;
62588;SDS011;58504;48.770;9.148;2022-08-21T10:12:07;0.60;;;0.60;;
62588;SDS011;58504;48.770;9.148;2022-08-21T10:14:44;0.60;;;0.60;;
62588;SDS011;58504;48.770;9.148;2022-08-21T10:17:17;0.90;;;0.90;;
62588;SDS011;58504;48.770;9.148;2022-08-21T10:19:51;0.70;;;0.70;;
62588;SDS011;58504;48.770;9.148;2022-08-21T10:22:30;0.63;;;0.63;;
62588;SDS011;58504;48.770;9.148;2022-08-21T10:25:07;0.80;;;0.80;;
62588;SDS011;58504;48.770;9.148;2022-08-21T10:27:40;2.05;;;0.50;;
62588;SDS011;58504;48.770;9.148;2022-08-21T10:30:18;0.82;;;0.82;;
62588;SDS011;58504;48.770;9.148;2022-08-21T10:33:02;0.60;;;0.60;;
62588;SDS011;58504;48.770;9.148;2022-08-21T10:35:40;0.50;;;0.50;;
62588;SDS011;58504;48.770;9.148;2022-08-21T10:41:14;0.63;;;0.63;;
62588;SDS011;58504;48.770;9.148;2022-08-21T10:43:52;0.50;;;0.50;;
62588;SDS011;58504;48.770;9.148;2022-08-21T10:46:29;2.92;;;0.90;;
62588;SDS011;58504;48.770;9.148;2022-08-21T10:49:08;0.93;;;0.93;;
62588;SDS011;58504;48.770;9.148;2022-08-21T10:51:44;0.65;;;0.65;;
62588;SDS011;58504;48.770;9.148;2022-08-21T10:54:19;0.60;;;0.60;;
62588;SDS011;58504;48.770;9.148;2022-08-21T10:56:53;0.60;;;0.60;;
62588;SDS011;58504;48.770;9.148;2022-08-21T10:59:26;0.70;;;0.70;;
62588;SDS011;58504;48.770;9.148;2022-08-21T11:01:59;0.73;;;0.73;;
62588;SDS011;58504;48.770;9.148;2022-08-21T11:04:30;1.10;;;1.00;;
62588;SDS011;58504;48.770;9.148;2022-08-21T11:07:02;1.90;;;1.13;;
62588;SDS011;58504;48.770;9.148;2022-08-21T11:09:40;0.82;;;0.82;;
62588;SDS011;58504;48.770;9.148;2022-08-21T11:12:13;0.88;;;0.88;;
62588;SDS011;58504;48.770;9.148;2022-08-21T11:14:49;1.05;;;1.00;;
62588;SDS011;58504;48.770;9.148;2022-08-21T11:17:21;1.15;;;0.80;;
62588;SDS011;58504;48.770;9.148;2022-08-21T11:19:52;1.27;;;0.63;;
62588;SDS011;58504;48.770;9.148;2022-08-21T11:22:25;0.70;;;0.70;;
62588;SDS011;58504;48.770;9.148;2022-08-21T11:25:02;0.88;;;0.80;;
62588;SDS011;58504;48.770;9.148;2022-08-21T11:27:36;0.70;;;0.70;;
62588;SDS011;58504;48.770;9.148;2022-08-21T11:30:10;0.70;;;0.70;;
62588;SDS011;58504;48.770;9.148;2022-08-21T11:32:47;0.93;;;0.93;;
62588;SDS011;58504;48.770;9.148;2022-08-21T11:35:30;0.70;;;0.70;;
62588;SDS011;58504;48.770;9.148;2022-08-21T11:38:04;0.75;;;0.75;;
62588;SDS011;58504;48.770;9.148;2022-08-21T11:40:47;0.88;;;0.88;;
62588;SDS011;58504;48.770;9.148;2022-08-21T11:43:28;0.63;;;0.63;;
62588;SDS011;58504;48.770;9.148;2022-08-21T11:46:06;1.23;;;0.88;;
62588;SDS011;58504;48.770;9.148;2022-08-21T11:48:40;0.70;;;0.70;;
62588;SDS011;58504;48.770;9.148;2022-08-21T11:51:15;0.60;;;0.60;;
62588;SDS011;58504;48.770;9.148;2022-08-21T11:53:46;0.80;;;0.80;;
62588;SDS011;58504;48.770;9.148;2022-08-21T11:56:21;0.90;;;0.73;;
62588;SDS011;58504;48.770;9.148;2022-08-21T11:58:54;1.27;;;1.10;;
62588;SDS011;58504;48.770;9.148;2022-08-21T12:01:24;0.80;;;0.80;;
62588;SDS011;58504;48.770;9.148;2022-08-21T12:03:55;1.00;;;0.90;;
62588;SDS011;58504;48.770;9.148;2022-08-21T12:06:30;1.05;;;0.80;;
62588;SDS011;58504;48.770;9.148;2022-08-21T12:09:01;1.02;;;1.02;;
62588;SDS011;58504;48.770;9.148;2022-08-21T12:11:31;0.68;;;0.68;;
62588;SDS011;58504;48.770;9.148;2022-08-21T12:14:12;1.05;;;1.05;;
62588;SDS011;58504;48.770;9.148;2022-08-21T12:16:41;0.90;;;0.90;;
62588;SDS011;58504;48.770;9.148;2022-08-21T12:19:09;1.00;;;0.80;;
62588;SDS011;58504;48.770;9.148;2022-08-21T12:21:47;1.00;;;1.00;;
62588;SDS011;58504;48.770;9.148;2022-08-21T12:24:16;0.75;;;0.75;;
62588;SDS011;58504;48.770;9.148;2022-08-21T12:26:49;1.08;;;1.08;;
62588;SDS011;58504;48.770;9.148;2022-08-21T12:29:21;1.00;;;1.00;;
62588;SDS011;58504;48.770;9.148;2022-08-21T12:32:00;1.20;;;1.10;;
62588;SDS011;58504;48.770;9.148;2022-08-21T12:34:38;1.90;;;1.13;;
62588;SDS011;58504;48.770;9.148;2022-08-21T12:37:14;1.45;;;0.98;;
62588;SDS011;58504;48.770;9.148;2022-08-21T12:39:46;0.95;;;0.85;;
62588;SDS011;58504;48.770;9.148;2022-08-21T12:42:19;0.83;;;0.83;;
62588;SDS011;58504;48.770;9.148;2022-08-21T12:44:50;1.05;;;1.05;;
62588;SDS011;58504;48.770;9.148;2022-08-21T12:47:22;0.88;;;0.88;;
62588;SDS011;58504;48.770;9.148;2022-08-21T12:49:54;1.55;;;1.42;;
62588;SDS011;58504;48.770;9.148;2022-08-21T12:52:28;1.48;;;1.38;;
62588;SDS011;58504;48.770;9.148;2022-08-21T12:54:57;1.15;;;1.15;;
62588;SDS011;58504;48.770;9.148;2022-08-21T12:57:25;1.20;;;1.20;;
62588;SDS011;58504;48.770;9.148;2022-08-21T12:59:55;4.65;;;1.10;;
62588;SDS011;58504;48.770;9.148;2022-08-21T13:02:25;14.45;;;1.85;;
62588;SDS011;58504;48.770;9.148;2022-08-21T13:04:56;0.88;;;0.88;;
62588;SDS011;58504;48.770;9.148;2022-08-21T13:07:25;4.35;;;1.20;;
62588;SDS011;58504;48.770;9.148;2022-08-21T13:09:56;1.33;;;1.15;;
62588;SDS011;58504;48.770;9.148;2022-08-21T13:12:26;2.20;;;1.23;;
62588;SDS011;58504;48.770;9.148;2022-08-21T13:14:55;1.42;;;1.13;;
62588;SDS011;58504;48.770;9.148;2022-08-21T13:17:24;2.13;;;1.42;;
62588;SDS011;58504;48.770;9.148;2022-08-21T13:19:53;4.78;;;1.70;;
62588;SDS011;58504;48.770;9.148;2022-08-21T13:22:21;3.03;;;2.15;;
62588;SDS011;58504;48.770;9.148;2022-08-21T13:24:49;2.03;;;1.45;;
62588;SDS011;58504;48.770;9.148;2022-08-21T13:27:18;1.75;;;1.65;;
62588;SDS011;58504;48.770;9.148;2022-08-21T13:29:48;8.13;;;1.75;;
62588;SDS011;58504;48.770;9.148;2022-08-21T13:32:27;3.28;;;1.67;;
62588;SDS011;58504;48.770;9.148;2022-08-21T13:34:58;1.80;;;1.70;;
62588;SDS011;58504;48.770;9.148;2022-08-21T13:37:25;2.25;;;2.00;;
62588;SDS011;58504;48.770;9.148;2022-08-21T13:39:54;3.10;;;1.83;;
62588;SDS011;58504;48.770;9.148;2022-08-21T13:42:20;1.95;;;1.80;;
62588;SDS011;58504;48.770;9.148;2022-08-21T13:44:51;1.88;;;1.77;;
62588;SDS011;58504;48.770;9.148;2022-08-21T13:47:19;2.20;;;2.00;;
62588;SDS011;58504;48.770;9.148;2022-08-21T13:49:47;2.10;;;1.92;;
62588;SDS011;58504;48.770;9.148;2022-08-21T13:52:17;3.50;;;2.28;;
62588;SDS011;58504;48.770;9.148;2022-08-21T13:54:51;2.17;;;1.98;;
62588;SDS011;58504;48.770;9.148;2022-08-21T13:57:24;1.77;;;1.65;;
62588;SDS011;58504;48.770;9.148;2022-08-21T14:00:08;2.83;;;1.92;;
62588;SDS011;58504;48.770;9.148;2022-08-21T14:02:38;2.00;;;1.90;;
62588;SDS011;58504;48.770;9.148;2022-08-21T14:05:07;2.47;;;1.75;;
62588;SDS011;58504;48.770;9.148;2022-08-21T14:07:42;2.60;;;1.60;;
62588;SDS011;58504;48.770;9.148;2022-08-21T14:10:11;3.20;;;1.90;;
62588;SDS011;58504;48.770;9.148;2022-08-21T14:12:42;4.30;;;1.83;;
62588;SDS011;58504;48.770;9.148;2022-08-21T14:15:14;1.65;;;1.55;;
62588;SDS011;58504;48.770;9.148;2022-08-21T14:17:42;2.25;;;2.05;;
62588;SDS011;58504;48.770;9.148;2022-08-21T14:20:11;1.88;;;1.63;;
62588;SDS011;58504;48.770;9.148;2022-08-21T14:22:52;2.17;;;2.00;;
62588;SDS011;58504;48.770;9.148;2022-08-21T14:25:27;2.92;;;1.40;;
62588;SDS011;58504;48.770;9.148;2022-08-21T14:27:56;3.13;;;1.92;;
62588;SDS011;58504;48.770;9.148;2022-08-21T14:30:29;5.13;;;1.95;;
62588;SDS011;58504;48.770;9.148;2022-08-21T14:32:58;3.13;;;1.60;;
62588;SDS011;58504;48.770;9.148;2022-08-21T14:35:26;5.65;;;1.90;;
62588;SDS011;58504;48.770;9.148;2022-08-21T14:37:53;4.95;;;2.15;;
62588;SDS011;58504;48.770;9.148;2022-08-21T14:40:21;2.97;;;2.10;;
62588;SDS011;58504;48.770;9.148;2022-08-21T14:42:50;6.32;;;2.78;;
62588;SDS011;58504;48.770;9.148;2022-08-21T14:45:17;5.78;;;2.65;;
62588;SDS011;58504;48.770;9.148;2022-08-21T14:47:47;5.93;;;2.17;;
62588;SDS011;58504;48.770;9.148;2022-08-21T14:50:14;3.95;;;2.65;;
62588;SDS011;58504;48.770;9.148;2022-08-21T14:52:41;3.28;;;2.42;;
62588;SDS011;58504;48.770;9.148;2022-08-21T14:55:11;5.18;;;2.60;;
62588;SDS011;58504;48.770;9.148;2022-08-21T14:57:39;5.00;;;2.40;;
62588;SDS011;58504;48.770;9.148;2022-08-21T15:00:10;4.60;;;2.30;;
62588;SDS011;58504;48.770;9.148;2022-08-21T15:02:38;4.05;;;2.10;;
62588;SDS011;58504;48.770;9.148;2022-08-21T15:05:06;5.18;;;2.72;;